createdAt,value
2022-12-31T00:01:14.856Z,11.50
2022-12-31T00:03:41.762Z,11.50
2022-12-31T00:06:20.714Z,11.50
2022-12-31T00:08:47.731Z,11.50
2022-12-31T00:11:14.671Z,11.50
2022-12-31T00:13:41.503Z,11.50
2022-12-31T00:16:12.230Z,11.50
2022-12-31T00:18:39.518Z,11.50
2022-12-31T00:21:09.462Z,11.50
2022-12-31T00:23:36.379Z,11.50
2022-12-31T00:26:07.180Z,11.50
2022-12-31T00:28:34.464Z,11.50
2022-12-31T00:31:08.570Z,11.50
2022-12-31T00:33:35.777Z,11.50
2022-12-31T00:36:09.044Z,11.50
2022-12-31T00:38:36.183Z,11.40
2022-12-31T00:41:03.090Z,11.40
2022-12-31T00:43:29.917Z,11.50
2022-12-31T00:45:56.719Z,11.40
2022-12-31T00:48:23.560Z,11.40
2022-12-31T00:50:50.400Z,11.40
2022-12-31T00:53:17.220Z,11.40
2022-12-31T00:55:44.105Z,11.40
2022-12-31T00:58:10.866Z,11.30
2022-12-31T01:00:37.858Z,11.30
2022-12-31T01:03:04.761Z,11.30
2022-12-31T01:05:31.734Z,11.30
2022-12-31T01:07:58.562Z,11.30
2022-12-31T01:10:43.751Z,11.30
2022-12-31T01:13:10.583Z,11.20
2022-12-31T01:15:37.712Z,11.20
2022-12-31T01:18:05.171Z,11.20
2022-12-31T01:20:35.793Z,11.20
2022-12-31T01:23:02.616Z,11.20
2022-12-31T01:25:29.392Z,11.20
2022-12-31T01:27:56.229Z,11.20
2022-12-31T01:30:23.172Z,11.20
2022-12-31T01:32:51.509Z,11.20
2022-12-31T01:35:18.396Z,11.20
2022-12-31T01:37:45.181Z,11.10
2022-12-31T01:40:12.016Z,11.20
2022-12-31T01:42:38.943Z,11.20
2022-12-31T01:45:09.859Z,11.10
2022-12-31T01:47:41.485Z,11.10
2022-12-31T01:50:10.224Z,11.10
2022-12-31T01:52:47.673Z,11.10
2022-12-31T01:55:20.400Z,11.00
2022-12-31T01:57:48.064Z,11.00
2022-12-31T02:00:15.136Z,11.00
2022-12-31T02:02:44.080Z,11.00
2022-12-31T02:05:13.746Z,11.00
2022-12-31T02:07:40.807Z,11.10
2022-12-31T02:10:07.771Z,11.10
2022-12-31T02:12:34.640Z,11.10
2022-12-31T02:15:01.654Z,11.10
2022-12-31T02:17:34.764Z,11.10
2022-12-31T02:20:04.372Z,11.10
2022-12-31T02:22:46.198Z,11.10
2022-12-31T02:25:37.192Z,11.20
2022-12-31T02:28:20.567Z,11.20
2022-12-31T02:30:48.372Z,11.20
2022-12-31T02:33:17.442Z,11.20
2022-12-31T02:35:48.703Z,11.20
2022-12-31T02:38:19.734Z,11.20
2022-12-31T02:40:47.270Z,11.20
2022-12-31T02:43:14.264Z,11.20
2022-12-31T02:45:41.977Z,11.20
2022-12-31T02:48:11.560Z,11.20
2022-12-31T02:50:55.573Z,11.20
2022-12-31T02:53:55.113Z,11.20
2022-12-31T02:56:23.736Z,11.20
2022-12-31T02:59:08.944Z,11.20
2022-12-31T03:01:55.546Z,11.20
2022-12-31T03:04:35.185Z,11.20
2022-12-31T03:07:02.811Z,11.20
2022-12-31T03:09:29.583Z,11.20
2022-12-31T03:12:15.021Z,11.20
2022-12-31T03:14:42.004Z,11.30
2022-12-31T03:17:08.754Z,11.30
2022-12-31T03:19:53.944Z,11.30
2022-12-31T03:22:29.953Z,11.30
2022-12-31T03:25:25.181Z,11.30
2022-12-31T03:27:52.954Z,11.30
2022-12-31T03:30:19.962Z,11.30
2022-12-31T03:32:47.079Z,11.30
2022-12-31T03:35:14.057Z,11.40
2022-12-31T03:37:41.167Z,11.30
2022-12-31T03:40:09.453Z,11.30
2022-12-31T03:42:37.742Z,11.30
2022-12-31T03:45:04.765Z,11.30
2022-12-31T03:47:31.606Z,11.30
2022-12-31T03:49:58.365Z,11.30
2022-12-31T03:52:25.203Z,11.30
2022-12-31T03:54:52.026Z,11.30
2022-12-31T03:57:18.865Z,11.30
2022-12-31T03:59:45.714Z,11.20
2022-12-31T04:02:12.727Z,11.20
2022-12-31T04:04:39.692Z,11.20
2022-12-31T04:07:06.510Z,11.20
2022-12-31T04:09:33.292Z,11.20
2022-12-31T04:12:00.099Z,11.30
2022-12-31T04:14:28.236Z,11.30
2022-12-31T04:16:55.073Z,11.30
2022-12-31T04:19:21.865Z,11.40
2022-12-31T04:21:48.733Z,11.40
2022-12-31T04:24:15.625Z,11.50
2022-12-31T04:26:44.063Z,11.50
2022-12-31T04:29:10.932Z,11.60
2022-12-31T04:31:37.778Z,11.60
2022-12-31T04:34:04.572Z,11.70
2022-12-31T04:36:31.371Z,11.70
2022-12-31T04:38:58.142Z,11.80
2022-12-31T04:41:27.157Z,11.90
2022-12-31T04:43:55.223Z,12.00
2022-12-31T04:46:22.983Z,12.00
2022-12-31T04:48:49.921Z,12.10
2022-12-31T04:51:16.813Z,12.10
2022-12-31T04:53:43.617Z,12.20
2022-12-31T04:56:10.451Z,12.20
2022-12-31T04:58:37.406Z,12.30
2022-12-31T05:01:04.375Z,12.40
2022-12-31T05:03:31.247Z,12.50
2022-12-31T05:06:01.754Z,12.60
2022-12-31T05:08:28.648Z,12.60
2022-12-31T05:10:55.430Z,12.70
2022-12-31T05:13:25.732Z,12.70
2022-12-31T05:15:56.333Z,12.70
2022-12-31T05:18:23.245Z,12.80
2022-12-31T05:20:50.044Z,12.80
2022-12-31T05:23:17.264Z,12.90
2022-12-31T05:25:44.314Z,12.90
2022-12-31T05:28:11.173Z,13.00
2022-12-31T05:30:38.070Z,13.10
2022-12-31T05:33:04.874Z,13.10
2022-12-31T05:35:31.722Z,13.10
2022-12-31T05:37:59.657Z,13.10
2022-12-31T05:40:26.661Z,13.20
2022-12-31T05:42:53.468Z,13.30
2022-12-31T05:45:25.253Z,13.30
2022-12-31T05:47:55.482Z,13.30
2022-12-31T05:50:22.282Z,13.30
2022-12-31T05:52:55.597Z,13.40
2022-12-31T05:55:22.461Z,13.40
2022-12-31T05:57:49.236Z,13.40
2022-12-31T06:00:16.192Z,13.40
2022-12-31T06:02:43.032Z,13.50
2022-12-31T06:05:10.221Z,13.40
2022-12-31T06:07:36.995Z,13.40
2022-12-31T06:10:04.603Z,13.40
2022-12-31T06:12:31.618Z,13.40
2022-12-31T06:14:58.493Z,13.50
2022-12-31T06:17:25.265Z,13.50
2022-12-31T06:19:52.111Z,13.50
2022-12-31T06:22:18.976Z,13.50
2022-12-31T06:24:47.022Z,13.50
2022-12-31T06:27:13.812Z,13.60
2022-12-31T06:29:40.786Z,13.50
2022-12-31T06:32:07.606Z,13.60
2022-12-31T06:34:34.403Z,13.60
2022-12-31T06:37:01.236Z,13.60
2022-12-31T06:39:28.117Z,13.60
2022-12-31T06:41:55.425Z,13.60
2022-12-31T06:44:22.686Z,13.60
2022-12-31T06:46:49.981Z,13.60
2022-12-31T06:49:16.947Z,13.50
2022-12-31T06:51:46.159Z,13.40
2022-12-31T06:54:13.908Z,13.40
2022-12-31T06:56:41.131Z,13.40
2022-12-31T06:59:14.300Z,13.40
2022-12-31T07:01:47.046Z,13.40
2022-12-31T07:04:16.706Z,13.40
2022-12-31T07:06:44.275Z,13.40
2022-12-31T07:09:15.034Z,13.40
2022-12-31T07:11:45.688Z,13.40
2022-12-31T07:14:51.164Z,13.40
2022-12-31T07:17:35.928Z,13.40
2022-12-31T07:20:04.060Z,13.30
2022-12-31T07:22:30.915Z,13.30
2022-12-31T07:24:57.905Z,13.30
2022-12-31T07:27:42.819Z,13.30
2022-12-31T07:30:12.147Z,13.30
2022-12-31T07:32:41.653Z,13.30
2022-12-31T07:35:11.120Z,13.30
2022-12-31T07:37:58.152Z,13.30
2022-12-31T07:40:25.256Z,13.30
2022-12-31T07:43:01.394Z,13.30
2022-12-31T07:45:39.450Z,13.40
2022-12-31T07:48:09.265Z,13.30
2022-12-31T07:50:36.145Z,13.30
2022-12-31T07:53:03.067Z,13.30
2022-12-31T07:55:29.883Z,13.30
2022-12-31T07:58:09.082Z,13.30
2022-12-31T08:00:35.961Z,13.30
2022-12-31T08:03:08.996Z,13.30
2022-12-31T08:06:14.296Z,13.30
2022-12-31T08:08:41.073Z,13.30
2022-12-31T08:11:14.049Z,13.30
2022-12-31T08:13:40.879Z,13.30
2022-12-31T08:16:09.860Z,13.40
2022-12-31T08:18:36.852Z,13.40
2022-12-31T08:21:06.640Z,13.40
2022-12-31T08:23:42.243Z,13.40
2022-12-31T08:26:20.972Z,13.50
2022-12-31T08:28:56.758Z,13.40
2022-12-31T08:31:30.677Z,13.50
2022-12-31T08:34:00.753Z,13.50
2022-12-31T08:36:41.225Z,13.50
2022-12-31T08:39:13.491Z,13.50
2022-12-31T08:41:44.369Z,13.40
2022-12-31T08:44:23.167Z,13.40
2022-12-31T08:46:52.756Z,13.40
2022-12-31T08:49:19.815Z,13.40
2022-12-31T08:51:46.781Z,13.40
2022-12-31T08:54:13.748Z,13.40
2022-12-31T08:56:59.427Z,13.40
2022-12-31T08:59:26.275Z,13.30
2022-12-31T09:02:00.474Z,13.30
2022-12-31T09:04:46.278Z,13.30
2022-12-31T09:07:13.112Z,13.30
2022-12-31T09:09:42.928Z,13.30
2022-12-31T09:12:09.723Z,13.30
2022-12-31T09:14:39.632Z,13.30
2022-12-31T09:17:27.698Z,13.40
2022-12-31T09:19:54.533Z,13.40
2022-12-31T09:22:22.068Z,13.40
2022-12-31T09:24:49.017Z,13.40
2022-12-31T09:27:23.878Z,13.40
2022-12-31T09:29:59.785Z,13.40
2022-12-31T09:32:29.443Z,13.50
2022-12-31T09:35:22.780Z,13.50
2022-12-31T09:37:50.372Z,13.50
2022-12-31T09:40:23.975Z,13.50
2022-12-31T09:43:05.239Z,13.50
2022-12-31T09:45:52.584Z,13.50
2022-12-31T09:48:22.544Z,13.50
2022-12-31T09:51:07.554Z,13.50
2022-12-31T09:53:36.273Z,13.50
2022-12-31T09:56:05.136Z,13.60
2022-12-31T09:58:45.320Z,13.60
2022-12-31T10:01:31.228Z,13.60
2022-12-31T10:04:07.323Z,13.60
2022-12-31T10:06:38.283Z,13.60
2022-12-31T10:09:23.658Z,13.60
2022-12-31T10:12:09.089Z,13.60
2022-12-31T10:14:45.300Z,13.60
2022-12-31T10:17:29.141Z,13.50
2022-12-31T10:20:22.108Z,13.50
2022-12-31T10:22:51.962Z,13.60
2022-12-31T10:25:21.715Z,13.60
2022-12-31T10:28:07.057Z,13.60
2022-12-31T10:30:34.498Z,13.60
2022-12-31T10:33:16.635Z,13.70
2022-12-31T10:36:02.398Z,13.70
2022-12-31T10:38:35.372Z,13.70
2022-12-31T10:41:08.208Z,13.70
2022-12-31T10:43:50.386Z,13.70
2022-12-31T10:46:29.298Z,13.60
2022-12-31T10:49:22.746Z,13.70
2022-12-31T10:51:49.552Z,13.60
2022-12-31T10:54:19.213Z,13.60
2022-12-31T10:56:54.214Z,13.60
2022-12-31T10:59:27.296Z,13.60
2022-12-31T11:01:54.242Z,13.60
2022-12-31T11:04:39.780Z,13.60
2022-12-31T11:07:12.297Z,13.60
2022-12-31T11:09:39.108Z,13.60
2022-12-31T11:12:14.965Z,13.60
2022-12-31T11:14:52.517Z,13.60
2022-12-31T11:17:19.330Z,13.60
2022-12-31T11:20:05.023Z,13.60
2022-12-31T11:22:37.796Z,13.50
2022-12-31T11:25:13.830Z,13.50
2022-12-31T11:27:42.711Z,13.50
2022-12-31T11:30:11.649Z,13.40
2022-12-31T11:32:38.476Z,13.40
2022-12-31T11:35:05.311Z,13.30
2022-12-31T11:37:37.488Z,13.30
2022-12-31T11:40:28.157Z,13.30
2022-12-31T11:42:59.657Z,13.20
2022-12-31T11:45:35.455Z,13.20
2022-12-31T11:48:29.564Z,13.20
2022-12-31T11:51:05.371Z,13.20
2022-12-31T11:53:43.413Z,13.20
2022-12-31T11:56:10.215Z,13.10
2022-12-31T11:58:37.068Z,13.20
2022-12-31T12:01:23.318Z,13.10
2022-12-31T12:03:50.251Z,13.10
2022-12-31T12:06:17.757Z,13.10
2022-12-31T12:08:44.733Z,13.10
2022-12-31T12:11:21.736Z,13.10
2022-12-31T12:13:48.632Z,13.10
2022-12-31T12:16:15.541Z,13.20
2022-12-31T12:18:44.677Z,13.30
2022-12-31T12:21:15.384Z,13.30
2022-12-31T12:23:42.807Z,13.40
2022-12-31T12:26:25.585Z,13.40
2022-12-31T12:28:52.461Z,13.50
2022-12-31T12:31:20.676Z,13.50
2022-12-31T12:33:48.063Z,13.50
2022-12-31T12:36:15.684Z,13.50
2022-12-31T12:38:42.903Z,13.60
2022-12-31T12:41:19.914Z,13.60
2022-12-31T12:43:46.792Z,13.60
2022-12-31T12:46:21.331Z,13.50
2022-12-31T12:48:49.527Z,13.50
2022-12-31T12:51:26.607Z,13.50
2022-12-31T12:54:05.735Z,13.40
2022-12-31T12:56:51.189Z,13.40
2022-12-31T12:59:19.554Z,13.40
2022-12-31T13:01:56.496Z,13.40
2022-12-31T13:04:34.645Z,13.40
2022-12-31T13:07:20.881Z,13.40
2022-12-31T13:09:54.703Z,13.40
2022-12-31T13:12:26.521Z,13.40
2022-12-31T13:14:59.375Z,13.40
2022-12-31T13:17:35.815Z,13.40
2022-12-31T13:20:02.601Z,13.30
2022-12-31T13:22:32.509Z,13.30
2022-12-31T13:24:59.395Z,13.30
2022-12-31T13:27:32.030Z,13.30
2022-12-31T13:29:59.777Z,13.30
2022-12-31T13:32:38.229Z,13.30
2022-12-31T13:35:15.562Z,13.20
2022-12-31T13:37:42.403Z,13.20
2022-12-31T13:40:17.431Z,13.10
2022-12-31T13:42:47.358Z,13.20
2022-12-31T13:45:16.536Z,13.10
2022-12-31T13:47:46.935Z,13.10
2022-12-31T13:50:16.604Z,13.10
2022-12-31T13:52:52.666Z,13.10
2022-12-31T13:55:31.076Z,13.10
2022-12-31T13:57:58.889Z,13.00
2022-12-31T14:00:26.834Z,13.00
2022-12-31T14:02:59.821Z,12.90
2022-12-31T14:05:26.781Z,12.90
2022-12-31T14:07:54.192Z,12.90
2022-12-31T14:10:23.493Z,12.90
2022-12-31T14:12:58.066Z,12.90
2022-12-31T14:15:43.827Z,12.90
2022-12-31T14:18:16.021Z,12.80
2022-12-31T14:20:46.321Z,12.80
2022-12-31T14:23:16.186Z,12.80
2022-12-31T14:25:46.515Z,12.90
2022-12-31T14:28:17.838Z,12.90
2022-12-31T14:30:44.716Z,12.80
2022-12-31T14:33:14.377Z,12.80
2022-12-31T14:35:43.920Z,12.80
2022-12-31T14:38:25.715Z,12.80
2022-12-31T14:40:58.495Z,12.80
2022-12-31T14:43:34.496Z,12.80
2022-12-31T14:46:20.186Z,12.70
2022-12-31T14:48:53.804Z,12.70
2022-12-31T14:51:20.731Z,12.80
2022-12-31T14:53:53.910Z,12.70
2022-12-31T14:56:26.963Z,12.70
2022-12-31T14:58:55.068Z,12.70
2022-12-31T15:01:22.783Z,12.70
2022-12-31T15:03:50.626Z,12.70
2022-12-31T15:06:37.669Z,12.70
2022-12-31T15:09:13.864Z,12.60
2022-12-31T15:12:00.960Z,12.60
2022-12-31T15:14:40.087Z,12.60
2022-12-31T15:17:29.477Z,12.60
2022-12-31T15:20:01.348Z,12.60
2022-12-31T15:22:28.215Z,12.60
2022-12-31T15:24:55.056Z,12.60
2022-12-31T15:27:26.902Z,12.50
2022-12-31T15:29:53.715Z,12.50
2022-12-31T15:32:21.264Z,12.60
2022-12-31T15:34:48.108Z,12.50
2022-12-31T15:37:28.692Z,12.50
2022-12-31T15:40:04.804Z,12.50
2022-12-31T15:42:38.175Z,12.50
2022-12-31T15:45:06.360Z,12.50
2022-12-31T15:47:43.458Z,12.50
2022-12-31T15:50:15.176Z,12.50
2022-12-31T15:52:42.827Z,12.50
2022-12-31T15:55:15.775Z,12.50
2022-12-31T15:57:42.777Z,12.50
2022-12-31T16:00:16.342Z,12.50
2022-12-31T16:02:43.477Z,12.50
2022-12-31T16:05:26.051Z,12.50
2022-12-31T16:07:56.320Z,12.50
2022-12-31T16:10:32.301Z,12.50
2022-12-31T16:13:00.382Z,12.50
2022-12-31T16:15:30.747Z,12.40
2022-12-31T16:18:04.902Z,12.50
2022-12-31T16:20:32.355Z,12.40
2022-12-31T16:23:01.629Z,12.40
2022-12-31T16:25:31.031Z,12.30
2022-12-31T16:27:58.598Z,12.30
2022-12-31T16:30:29.358Z,12.30
2022-12-31T16:32:58.163Z,12.20
2022-12-31T16:35:28.885Z,12.20
2022-12-31T16:38:02.796Z,12.20
2022-12-31T16:40:29.996Z,12.20
2022-12-31T16:42:56.951Z,12.20
2022-12-31T16:45:31.231Z,12.20
2022-12-31T16:48:02.462Z,12.30
2022-12-31T16:50:30.073Z,12.30
2022-12-31T16:53:02.598Z,12.30
2022-12-31T16:55:29.583Z,12.30
2022-12-31T16:57:58.021Z,12.40
2022-12-31T17:00:24.902Z,12.40
2022-12-31T17:03:03.822Z,12.30
2022-12-31T17:05:30.730Z,12.30
2022-12-31T17:07:57.679Z,12.30
2022-12-31T17:10:33.376Z,12.40
2022-12-31T17:15:48.552Z,12.40
2022-12-31T17:18:20.002Z,12.50
2022-12-31T17:20:46.810Z,12.50
2022-12-31T17:23:17.393Z,12.50
2022-12-31T17:25:44.227Z,12.50
2022-12-31T17:28:22.149Z,12.60
2022-12-31T17:30:49.039Z,12.60
2022-12-31T17:33:21.888Z,12.60
2022-12-31T17:35:49.008Z,12.70
2022-12-31T17:38:22.097Z,12.70
2022-12-31T17:40:51.695Z,12.70
2022-12-31T17:43:19.482Z,12.70
2022-12-31T17:45:46.292Z,12.80
2022-12-31T17:48:14.065Z,12.80
2022-12-31T17:50:47.528Z,12.80
2022-12-31T17:53:14.539Z,12.80
2022-12-31T17:55:42.216Z,12.70
2022-12-31T17:58:12.561Z,12.70
2022-12-31T18:00:39.378Z,12.70
2022-12-31T18:03:06.306Z,12.70
2022-12-31T18:05:33.289Z,12.70
2022-12-31T18:08:00.105Z,12.80
2022-12-31T18:10:26.883Z,12.80
2022-12-31T18:12:53.728Z,12.80
2022-12-31T18:15:21.143Z,12.80
2022-12-31T18:17:48.098Z,12.90
2022-12-31T18:20:15.327Z,12.90
2022-12-31T18:22:42.596Z,12.90
2022-12-31T18:25:22.674Z,12.90
2022-12-31T18:27:49.823Z,12.80
2022-12-31T18:30:16.890Z,12.90
2022-12-31T18:32:44.180Z,12.90
2022-12-31T18:35:33.287Z,12.90
2022-12-31T18:38:01.871Z,12.80
2022-12-31T18:40:28.699Z,12.80
2022-12-31T18:42:59.689Z,12.80
2022-12-31T18:45:29.728Z,12.80
2022-12-31T18:47:56.621Z,12.80
2022-12-31T18:50:23.451Z,12.80
2022-12-31T18:52:50.262Z,12.80
2022-12-31T18:55:27.564Z,12.90
2022-12-31T18:57:54.348Z,12.90
2022-12-31T19:00:21.149Z,12.90
2022-12-31T19:02:47.977Z,12.90
2022-12-31T19:05:27.795Z,12.90
2022-12-31T19:07:54.664Z,12.90
2022-12-31T19:10:21.572Z,12.90
2022-12-31T19:12:48.477Z,13.00
2022-12-31T19:15:20.509Z,13.00
2022-12-31T19:17:47.382Z,13.10
2022-12-31T19:20:14.205Z,13.10
2022-12-31T19:22:41.012Z,13.20
2022-12-31T19:25:20.040Z,13.20
2022-12-31T19:27:46.885Z,13.30
2022-12-31T19:30:17.467Z,13.40
2022-12-31T19:32:44.518Z,13.30
2022-12-31T19:35:11.882Z,13.40
2022-12-31T19:37:39.053Z,13.40
2022-12-31T19:40:06.167Z,13.40
2022-12-31T19:42:33.038Z,13.50
2022-12-31T19:44:59.820Z,13.50
2022-12-31T19:47:26.673Z,13.50
2022-12-31T19:49:53.437Z,13.50
2022-12-31T19:52:20.258Z,13.50
2022-12-31T19:54:47.070Z,13.50
2022-12-31T19:57:14.059Z,13.60
2022-12-31T19:59:40.892Z,13.60
2022-12-31T20:02:07.926Z,13.60
2022-12-31T20:04:34.843Z,13.60
2022-12-31T20:07:01.659Z,13.60
2022-12-31T20:09:28.556Z,13.70
2022-12-31T20:11:55.342Z,13.60
2022-12-31T20:14:22.218Z,13.60
2022-12-31T20:16:48.991Z,13.60
2022-12-31T20:19:15.817Z,13.60
2022-12-31T20:21:44.605Z,13.60
2022-12-31T20:24:11.375Z,13.60
2022-12-31T20:26:38.273Z,13.60
2022-12-31T20:29:05.085Z,13.60
2022-12-31T20:31:31.901Z,13.60
2022-12-31T20:33:58.720Z,13.60
2022-12-31T20:36:26.441Z,13.60
2022-12-31T20:38:53.327Z,13.60
2022-12-31T20:41:20.843Z,13.60
2022-12-31T20:43:47.722Z,13.60
2022-12-31T20:46:16.287Z,13.60
2022-12-31T20:48:43.745Z,13.50
2022-12-31T20:51:10.599Z,13.50
2022-12-31T20:53:37.390Z,13.40
2022-12-31T20:56:07.739Z,13.40
2022-12-31T20:58:34.648Z,13.40
2022-12-31T21:01:01.619Z,13.30
2022-12-31T21:04:03.760Z,13.30
2022-12-31T21:06:15.397Z,13.30
2022-12-31T21:08:42.328Z,13.20
2022-12-31T21:11:27.929Z,13.20
2022-12-31T21:13:55.245Z,13.20
2022-12-31T21:16:22.257Z,13.20
2022-12-31T21:18:49.097Z,13.10
2022-12-31T21:21:15.988Z,13.10
2022-12-31T21:23:42.791Z,13.10
2022-12-31T21:26:09.643Z,13.10
2022-12-31T21:28:36.607Z,13.10
2022-12-31T21:31:04.425Z,13.10
2022-12-31T21:33:31.251Z,13.10
2022-12-31T21:36:04.092Z,13.10
2022-12-31T21:38:31.454Z,13.00
2022-12-31T21:41:01.800Z,13.00
2022-12-31T21:43:28.640Z,12.90
2022-12-31T21:46:05.069Z,12.90
2022-12-31T21:48:32.054Z,12.90
2022-12-31T21:51:08.911Z,12.90
2022-12-31T21:53:37.265Z,12.80
2022-12-31T21:56:16.205Z,12.80
2022-12-31T21:58:43.854Z,12.80
2022-12-31T22:01:33.943Z,12.90
2022-12-31T22:04:00.911Z,12.90
2022-12-31T22:06:27.847Z,12.90
2022-12-31T22:08:55.042Z,12.90
2022-12-31T22:11:22.961Z,12.90
2022-12-31T22:13:50.023Z,12.90
2022-12-31T22:16:17.446Z,12.90
2022-12-31T22:18:44.504Z,13.00
2022-12-31T22:21:18.768Z,13.00
2022-12-31T22:23:47.252Z,13.00
2022-12-31T22:26:14.672Z,12.90
2022-12-31T22:28:41.957Z,12.90
2022-12-31T22:31:18.830Z,12.90
2022-12-31T22:33:45.732Z,12.90
2022-12-31T22:36:13.424Z,12.90
2022-12-31T22:38:40.230Z,12.90
2022-12-31T22:41:11.122Z,12.90
2022-12-31T22:43:41.739Z,12.90
2022-12-31T22:46:24.519Z,12.80
2022-12-31T22:48:51.841Z,12.80
2022-12-31T22:51:18.820Z,12.80
2022-12-31T22:53:45.765Z,12.80
2022-12-31T22:56:13.375Z,12.80
2022-12-31T22:58:40.147Z,12.80
2022-12-31T23:01:07.458Z,12.80
2022-12-31T23:03:34.367Z,12.70
2022-12-31T23:06:01.283Z,12.70
2022-12-31T23:08:28.104Z,12.70
2022-12-31T23:11:00.479Z,12.70
2022-12-31T23:13:50.640Z,12.70
2022-12-31T23:16:37.333Z,12.70
2022-12-31T23:19:22.961Z,12.70
2022-12-31T23:22:08.677Z,12.70
2022-12-31T23:24:35.570Z,12.70
2022-12-31T23:27:02.362Z,12.70
2022-12-31T23:29:29.153Z,12.70
2022-12-31T23:31:57.024Z,12.70
2022-12-31T23:34:23.853Z,12.70
2022-12-31T23:36:50.660Z,12.60
2022-12-31T23:39:17.536Z,12.60
2022-12-31T23:41:44.359Z,12.60
2022-12-31T23:44:12.335Z,12.60
2022-12-31T23:46:39.441Z,12.60
2022-12-31T23:49:06.588Z,12.60
2022-12-31T23:51:33.423Z,12.60
2022-12-31T23:54:00.790Z,12.60
2022-12-31T23:56:27.593Z,12.60
2022-12-31T23:58:55.309Z,12.60
